ENHV/HVG METAR and TAF weather

Enter ICAO airport designator
Station Type Date Time Source
ENHV METAR 2022/01/26 13:50 UTC NOAA

ENHV 261350Z 20011KT 7000 -SN FEW012 BKN016 M02/M04 Q0994


Station Type Date Time Source
ENHV Decoded METAR 2022/01/26 13:50 UTC NOAA

Honningsvag / Valan, Norway (ENHV) 71-01N 025-59E 14M
Jan 26, 2022 - 08:50 AM EST / 2022.01.26 1350 UTC
Wind: from the SSW (200 degrees) at 13 MPH (11 KT):0
Visibility: 4 mile(s):0
Sky conditions: mostly cloudy
Weather: light snow
Temperature: 28 F (-2 C)
Windchill: 17 F (-8 C):1
Dew Point: 24 F (-4 C)
Relative Humidity: 86%
Pressure (altimeter): 29.35 in. Hg (0994 hPa)
ob: ENHV 261350Z 20011KT 7000 -SN FEW012 BKN016 M02/M04 Q0994
cycle: 14

Station Type Date Time Source
ENHV TAF UTC NOAA

Error!

Example: see airport list